METAR Data
IDs: Format: Raw Decoded Include TAF

Data at: 2016 UTC 08 Aug 2020

NZWN 082000Z AUTO 02009KT 9999 BKN024/// BKN029/// 08/05 Q1009 NOSIG
NZWN 081930Z AUTO 01006KT 9999 OVC023/// 08/05 Q1009 NOSIG
NZWN 081900Z AUTO 02007KT 9999 BKN026/// 08/04 Q1009 NOSIG
NZWN 081830Z AUTO 03009KT 9999 BKN031/// 07/04 Q1008 NOSIG
NZWN 081800Z AUTO 03010KT 9999 BKN029/// 07/04 Q1008 NOSIG
NZWN 081730Z AUTO 02010KT 9999 FEW026/// 07/04 Q1008 NOSIG

TAF NZWN 081709Z 0818/0918 04010KT 9999 SCT030
  FM082100 34015KT 9999 FEW030